METAR Data
IDs: Format: Raw Decoded Include TAF

Data at: 1045 UTC 18 Jan 2022

KRIL 180953Z AUTO 09004KT 10SM CLR M08/M12 A3006 RMK AO2 SLP205 T10831122
KRIL 180853Z AUTO 12003KT 10SM CLR M08/M12 A3006 RMK AO2 SLP209 T10831122 56005
KRIL 180753Z AUTO 00000KT 10SM CLR M08/M12 A3006 RMK AO2 SLP211 T10781122
KRIL 180653Z AUTO 00000KT 10SM CLR M07/M12 A3007 RMK AO2 SLP217 T10721117 400281133
KRIL 180553Z AUTO 00000KT 10SM CLR M07/M11 A3008 RMK AO2 SLP226 T10671111 11017 21072 56001
KRIL 180453Z AUTO 10004KT 10SM CLR M07/M12 A3008 RMK AO2 SLP229 T10721122
KRIL 180353Z AUTO 16003KT 10SM CLR M06/M11 A3008 RMK AO2 SLP237 T10561111
KRIL 180253Z AUTO 13003KT 10SM CLR M05/M11 A3008 RMK AO2 SLP244 T10501106 51003
KRIL 180153Z AUTO 00000KT 10SM CLR M04/M11 A3008 RMK AO2 SLP238 T10441106
KRIL 180053Z AUTO 18003KT 10SM CLR M03/M11 A3008 RMK AO2 SLP234 T10281106
KRIL 172353Z AUTO 15003KT 10SM CLR M01/M09 A3007 RMK AO2 SLP228 T10111089 10028 21044 55006
KRIL 172253Z AUTO 00000KT 10SM CLR 03/M12 A3007 RMK AO2 SLP217 T00281122
KRIL 172153Z AUTO 00000KT 10SM CLR 02/M11 A3009 RMK AO2 SLP223 T00221106
KRIL 172053Z AUTO 00000KT 10SM CLR 02/M12 A3009 RMK AO2 SLP225 T00171117 58036
KRIL 171953Z AUTO 00000KT 10SM CLR M01/M11 A3016 RMK AO2 SLP251 T10061111
KRIL 171853Z AUTO 00000KT 10SM CLR M02/M13 A3018 RMK AO2 SLP262 T10221128
KRIL 171753Z AUTO 00000KT 10SM CLR M04/M12 A3022 RMK AO2 SLP279 T10441122 11044 21133 58002
KRIL 171653Z AUTO 00000KT 10SM CLR M06/M13 A3022 RMK AO2 SLP280 T10561128
KRIL 171553Z AUTO 00000KT 10SM CLR M10/M13 A3023 RMK AO2 SLP291 T11001133
KRIL 171453Z AUTO 00000KT 10SM CLR M13/M16 A3022 RMK AO2 SLP296 T11281156 55000
KRIL 171353Z AUTO 00000KT 10SM CLR M11/M14 A3022 RMK AO2 SLP285 T11111144
KRIL 171253Z AUTO 00000KT 10SM CLR M12/M16 A3022 RMK AO2 SLP279 T11171156
KRIL 171153Z AUTO 14004KT 10SM CLR M12/M16 A3022 RMK AO2 SLP277 T11221156 11078 21128 56005
KRIL 171053Z AUTO 12003KT 10SM CLR M12/M15 A3022 RMK AO2 SLP277 T11221150
KRIL 170953Z AUTO 00000KT 10SM CLR M12/M15 A3024 RMK AO2 SLP279 T11171150
KRIL 170853Z AUTO 00000KT 10SM CLR M11/M14 A3024 RMK AO2 SLP280 T11061144 58001
KRIL 170753Z AUTO 14003KT 10SM CLR M10/M14 A3025 RMK AO2 SLP285 T11001139
KRIL 170653Z AUTO 00000KT 10SM CLR M09/M13 A3025 RMK AO2 SLP290 T10941133 400171139
KRIL 170553Z AUTO 00000KT 10SM CLR M09/M13 A3025 RMK AO2 SLP290 T10891133 10006 21089 50001
KRIL 170453Z AUTO 14003KT 10SM CLR M07/M12 A3025 RMK AO2 SLP293 T10721122
KRIL 170353Z AUTO 13004KT 10SM CLR M07/M12 A3026 RMK AO2 SLP306 T10721122
KRIL 170253Z AUTO 18003KT 10SM CLR M06/M12 A3024 RMK AO2 SLP303 T10611117 50006
KRIL 170153Z AUTO 14003KT 10SM CLR M05/M11 A3025 RMK AO2 SLP299 T10501106
KRIL 170053Z AUTO 00000KT 10SM CLR M02/M10 A3023 RMK AO2 SLP286 T10221100
KRIL 162353Z AUTO 08003KT 10SM CLR 01/M11 A3022 RMK AO2 SLP277 T00061106 10017 21050 56007
KRIL 162253Z AUTO 11004KT 10SM CLR 01/M08 A3023 RMK AO2 SLP281 T00111083